Time;durP1;ratioP1;P1;durP2;ratioP2;P2;SDS_P1;SDS_P2;PMS_P1;PMS_P2;Temp;Humidity;BMP_temperature;BMP_pressure;BME280_temperature;BME280_humidity;BME280_pressure;Samples;Min_cycle;Max_cycle;Signal;HPM_P1;HPM_P2
2023/07/17 00:02:01;;;;;;;6.50;2.85;;;24.80;99.90;;;;;;5017531;28;20252;-70
2023/07/17 00:04:50;;;;;;;3.83;2.97;;;24.80;99.90;;;;;;5024936;28;20313;-69
2023/07/17 00:07:41;;;;;;;4.18;2.78;;;24.70;99.90;;;;;;5021414;28;20713;-69
2023/07/17 00:10:31;;;;;;;4.38;2.70;;;24.70;99.90;;;;;;5020936;28;20217;-71
2023/07/17 00:13:21;;;;;;;4.05;3.00;;;24.80;99.90;;;;;;5007992;28;20761;-70
2023/07/17 00:16:09;;;;;;;3.45;3.15;;;24.70;99.90;;;;;;5016833;28;20234;-71
2023/07/17 00:18:58;;;;;;;3.20;2.90;;;24.60;99.90;;;;;;5019435;28;20226;-71
2023/07/17 00:21:47;;;;;;;3.85;2.70;;;24.60;99.90;;;;;;5016483;28;20368;-71
2023/07/17 00:24:36;;;;;;;3.30;2.97;;;24.60;99.90;;;;;;5020280;28;21239;-71
2023/07/17 00:27:26;;;;;;;7.35;3.00;;;24.60;99.90;;;;;;5012894;28;20269;-70
2023/07/17 00:30:17;;;;;;;5.00;3.20;;;24.60;99.90;;;;;;5016229;28;20237;-71
2023/07/17 00:33:05;;;;;;;4.05;3.17;;;24.50;99.90;;;;;;5016614;28;20710;-70
2023/07/17 00:35:54;;;;;;;4.05;2.95;;;24.50;99.90;;;;;;5013047;28;20269;-71
2023/07/17 00:38:43;;;;;;;5.40;3.67;;;24.40;99.90;;;;;;5024487;28;21085;-72
2023/07/17 00:41:33;;;;;;;3.50;3.20;;;24.40;99.90;;;;;;5015170;28;20228;-71
2023/07/17 00:44:24;;;;;;;4.10;3.22;;;24.40;99.90;;;;;;5017695;28;20649;-71
2023/07/17 00:47:13;;;;;;;3.60;3.30;;;24.30;99.90;;;;;;5011578;28;20214;-71
2023/07/17 00:50:04;;;;;;;6.00;3.60;;;24.30;99.90;;;;;;5008180;28;20572;-71
2023/07/17 00:52:54;;;;;;;3.72;3.42;;;24.30;99.90;;;;;;5010865;28;20234;-71
2023/07/17 00:55:44;;;;;;;5.35;3.90;;;24.40;99.90;;;;;;5004703;28;20225;-70
2023/07/17 00:58:34;;;;;;;8.40;3.40;;;24.30;99.90;;;;;;5018025;28;20700;-70
2023/07/17 01:01:25;;;;;;;6.55;3.50;;;24.30;99.90;;;;;;5019652;28;20229;-71
2023/07/17 01:04:14;;;;;;;4.00;3.60;;;24.30;99.90;;;;;;5018556;28;20286;-71
2023/07/17 01:07:03;;;;;;;5.88;3.75;;;24.30;99.90;;;;;;5032785;28;20217;-69
2023/07/17 01:09:53;;;;;;;3.55;3.25;;;24.30;99.90;;;;;;5014036;28;20226;-71
2023/07/17 01:12:42;;;;;;;5.35;3.60;;;24.20;99.90;;;;;;5020286;28;20240;-70
2023/07/17 01:15:31;;;;;;;6.90;3.63;;;24.20;99.90;;;;;;5015011;28;20233;-70
2023/07/17 01:18:21;;;;;;;8.52;4.00;;;24.10;99.90;;;;;;5017261;28;20716;-70
2023/07/17 01:21:12;;;;;;;4.05;3.50;;;24.10;99.90;;;;;;5012072;28;21077;-69
2023/07/17 01:24:03;;;;;;;5.55;3.70;;;24.10;99.90;;;;;;5017953;28;20224;-69
2023/07/17 01:26:52;;;;;;;6.40;3.60;;;24.00;99.90;;;;;;5010387;28;20778;-71
2023/07/17 01:29:42;;;;;;;3.97;3.38;;;24.00;99.90;;;;;;5026459;28;20237;-71
2023/07/17 01:32:31;;;;;;;4.40;3.85;;;23.90;99.90;;;;;;5022523;28;20225;-72
2023/07/17 01:35:20;;;;;;;5.45;3.80;;;23.90;99.90;;;;;;5007313;28;20684;-69
2023/07/17 01:38:09;;;;;;;8.27;4.10;;;24.00;99.90;;;;;;5013857;28;20241;-72
2023/07/17 01:40:59;;;;;;;5.03;3.95;;;23.90;99.90;;;;;;5007546;28;20728;-71
2023/07/17 01:43:47;;;;;;;5.72;3.85;;;23.90;99.90;;;;;;5012048;28;20284;-70
2023/07/17 01:46:36;;;;;;;5.20;3.97;;;23.80;99.90;;;;;;5016254;28;20241;-71
2023/07/17 01:49:25;;;;;;;6.60;4.10;;;23.80;99.90;;;;;;5017789;28;20221;-69
2023/07/17 01:52:14;;;;;;;5.15;3.80;;;23.70;99.90;;;;;;5020615;28;20592;-69
2023/07/17 01:55:04;;;;;;;7.05;4.03;;;23.60;99.90;;;;;;4983447;28;20226;-70
2023/07/17 01:57:55;;;;;;;6.07;4.10;;;23.70;99.90;;;;;;4990406;28;20721;-69
2023/07/17 02:00:44;;;;;;;5.03;4.20;;;23.70;99.90;;;;;;4991583;28;20249;-72
2023/07/17 02:03:34;;;;;;;4.15;3.70;;;23.70;99.90;;;;;;5000423;28;20239;-71
2023/07/17 02:06:23;;;;;;;5.30;4.10;;;23.60;99.90;;;;;;4997272;28;20312;-70
2023/07/17 02:09:14;;;;;;;5.20;4.20;;;23.60;99.90;;;;;;4988483;28;20301;-71
2023/07/17 02:12:03;;;;;;;4.93;3.85;;;23.60;99.90;;;;;;5013713;28;20949;-70
2023/07/17 02:14:54;;;;;;;7.40;4.35;;;23.60;99.90;;;;;;4998680;28;20222;-71
2023/07/17 02:17:46;;;;;;;10.18;4.57;;;23.40;99.90;;;;;;5008570;28;20733;-71
2023/07/17 02:21:00;;;;;;;5.78;3.78;;;23.50;99.90;;;;;;5018394;28;20724;-71
2023/07/17 02:23:49;;;;;;;6.20;4.30;;;23.50;99.90;;;;;;5009809;28;20222;-72
2023/07/17 02:26:38;;;;;;;9.32;4.50;;;23.50;99.90;;;;;;5014691;28;20260;-72
2023/07/17 02:29:27;;;;;;;4.65;4.10;;;23.40;99.90;;;;;;5015871;28;20897;-73
2023/07/17 02:32:17;;;;;;;6.65;4.25;;;23.30;99.90;;;;;;5014930;28;20632;-71
2023/07/17 02:35:07;;;;;;;5.35;3.95;;;23.30;99.90;;;;;;5015824;28;20304;-71
2023/07/17 02:37:56;;;;;;;6.20;4.00;;;23.40;99.90;;;;;;5009002;28;20256;-72
2023/07/17 02:40:44;;;;;;;4.18;3.60;;;23.40;99.90;;;;;;5018936;28;20245;-71
2023/07/17 02:43:33;;;;;;;8.43;4.15;;;23.40;99.90;;;;;;5000646;28;20261;-71
2023/07/17 02:46:22;;;;;;;6.28;4.15;;;23.30;99.90;;;;;;5017385;28;20225;-72
2023/07/17 02:49:13;;;;;;;6.35;4.25;;;23.30;99.90;;;;;;5016682;28;20218;-71
2023/07/17 02:52:02;;;;;;;5.60;3.90;;;23.30;99.90;;;;;;5003925;28;20229;-71
2023/07/17 02:54:51;;;;;;;8.80;4.57;;;23.30;99.90;;;;;;5022203;28;20225;-72
2023/07/17 02:57:40;;;;;;;5.70;4.10;;;23.20;99.90;;;;;;5017425;28;20229;-71
2023/07/17 03:00:30;;;;;;;7.95;4.55;;;23.30;99.90;;;;;;5023474;28;20260;-71
2023/07/17 03:03:19;;;;;;;6.93;4.28;;;23.30;99.90;;;;;;5023025;28;20226;-70
2023/07/17 03:06:09;;;;;;;4.38;3.97;;;23.30;99.90;;;;;;4976099;28;20387;-71
2023/07/17 03:08:58;;;;;;;4.75;4.20;;;23.30;99.90;;;;;;5015424;28;20719;-71
2023/07/17 03:11:47;;;;;;;5.47;4.05;;;23.40;99.90;;;;;;5017731;28;20241;-71
2023/07/17 03:14:36;;;;;;;5.95;4.25;;;23.40;99.90;;;;;;5022337;28;20221;-72
2023/07/17 03:17:24;;;;;;;6.00;4.03;;;23.40;99.90;;;;;;5015568;28;20217;-72
2023/07/17 03:20:14;;;;;;;4.78;4.25;;;23.40;99.90;;;;;;5008220;28;20229;-73
2023/07/17 03:23:04;;;;;;;5.65;4.25;;;23.40;99.90;;;;;;5011513;28;20541;-73
2023/07/17 03:25:56;;;;;;;6.30;4.00;;;23.50;99.90;;;;;;5011455;28;20233;-71
2023/07/17 03:28:46;;;;;;;4.55;4.10;;;23.40;99.90;;;;;;5022347;28;20236;-72
2023/07/17 03:31:35;;;;;;;4.50;4.10;;;23.40;99.90;;;;;;5023629;28;20229;-72
2023/07/17 03:34:24;;;;;;;7.43;4.10;;;23.40;99.90;;;;;;5019005;28;20268;-71
2023/07/17 03:37:13;;;;;;;5.82;4.45;;;23.50;99.90;;;;;;5024702;28;20271;-70
2023/07/17 03:40:05;;;;;;;6.20;4.47;;;23.60;99.90;;;;;;5016955;28;20590;-71
2023/07/17 03:42:54;;;;;;;5.15;4.30;;;23.60;99.90;;;;;;5018194;28;20260;-73
2023/07/17 03:45:43;;;;;;;7.85;3.90;;;23.70;99.90;;;;;;5015154;28;20303;-72
2023/07/17 03:48:32;;;;;;;8.73;4.20;;;23.60;99.90;;;;;;5013819;28;20305;-73
2023/07/17 03:51:26;;;;;;;7.85;4.60;;;23.60;99.90;;;;;;5022952;28;20218;-73
2023/07/17 03:54:14;;;;;;;5.72;4.20;;;23.60;99.90;;;;;;5005500;28;20596;-72
2023/07/17 03:57:06;;;;;;;8.45;4.57;;;23.70;99.90;;;;;;5015243;28;20214;-73
2023/07/17 03:59:58;;;;;;;5.40;4.30;;;23.50;99.90;;;;;;5003800;28;20710;-73
2023/07/17 04:03:00;;;;;;;6.78;4.75;;;23.50;99.90;;;;;;5011978;28;20700;-72
2023/07/17 04:05:54;;;;;;;7.82;4.60;;;23.50;99.90;;;;;;4991054;28;20236;-72
2023/07/17 04:08:43;;;;;;;9.35;4.60;;;23.60;99.90;;;;;;5020652;28;20251;-71
2023/07/17 04:11:34;;;;;;;9.15;4.82;;;23.60;99.90;;;;;;4992338;28;20238;-71
2023/07/17 04:14:24;;;;;;;7.00;4.57;;;23.70;99.90;;;;;;5010673;28;20218;-71
2023/07/17 04:17:13;;;;;;;6.78;4.45;;;23.60;99.90;;;;;;5020836;28;20217;-72
2023/07/17 04:20:03;;;;;;;5.85;4.93;;;23.70;99.90;;;;;;5014997;28;20241;-70
2023/07/17 04:22:52;;;;;;;6.15;5.00;;;23.70;99.90;;;;;;5009599;28;20236;-71
2023/07/17 04:25:42;;;;;;;5.13;4.28;;;23.70;99.90;;;;;;5009758;28;20319;-69
2023/07/17 04:28:32;;;;;;;6.53;4.80;;;23.80;99.90;;;;;;5017873;28;20233;-70
2023/07/17 04:31:22;;;;;;;6.68;4.97;;;23.90;99.90;;;;;;5017702;28;20244;-72
2023/07/17 04:34:12;;;;;;;7.15;5.05;;;23.90;99.90;;;;;;5000340;28;20347;-70
2023/07/17 04:37:00;;;;;;;6.65;4.35;;;23.90;99.90;;;;;;5018730;28;20275;-71
2023/07/17 04:39:49;;;;;;;8.38;4.78;;;23.90;99.90;;;;;;5007119;28;20328;-71
2023/07/17 04:42:39;;;;;;;8.13;4.50;;;23.80;99.90;;;;;;5002662;28;20226;-69
2023/07/17 04:45:29;;;;;;;6.82;4.88;;;23.90;99.90;;;;;;5007577;28;20695;-71
2023/07/17 04:48:21;;;;;;;6.05;5.10;;;24.00;99.90;;;;;;5003383;28;20233;-69
2023/07/17 04:51:10;;;;;;;8.02;5.38;;;24.00;99.90;;;;;;5034200;28;20229;-70
2023/07/17 04:53:59;;;;;;;10.25;5.10;;;24.10;99.90;;;;;;5020194;28;20659;-71
2023/07/17 04:56:48;;;;;;;7.78;4.63;;;24.20;99.90;;;;;;5001438;28;20234;-72
2023/07/17 04:59:41;;;;;;;8.48;5.05;;;24.20;99.90;;;;;;5011056;28;20716;-73
2023/07/17 05:02:30;;;;;;;5.22;4.60;;;24.10;99.90;;;;;;4989220;28;20425;-73
2023/07/17 05:05:20;;;;;;;5.85;4.57;;;24.10;99.90;;;;;;5022697;28;20244;-71
2023/07/17 05:08:09;;;;;;;6.00;4.50;;;24.10;99.90;;;;;;5004272;28;20232;-74
2023/07/17 05:11:00;;;;;;;7.32;4.80;;;24.20;99.90;;;;;;5000615;28;20222;-75
2023/07/17 05:13:54;;;;;;;7.43;5.05;;;24.50;99.90;;;;;;4993374;28;20701;-74
2023/07/17 05:16:44;;;;;;;5.85;4.97;;;24.40;99.90;;;;;;5008179;28;20263;-75
2023/07/17 05:19:34;;;;;;;9.60;5.20;;;24.50;99.90;;;;;;5024710;28;20225;-74
2023/07/17 05:22:26;;;;;;;9.05;5.07;;;24.50;99.90;;;;;;5002406;28;20218;-73
2023/07/17 05:25:15;;;;;;;9.20;5.15;;;24.70;99.90;;;;;;5014611;28;20225;-73
2023/07/17 05:28:05;;;;;;;8.65;4.95;;;24.70;99.90;;;;;;5000858;28;20215;-72
2023/07/17 05:30:54;;;;;;;12.93;5.03;;;24.80;99.90;;;;;;5014633;28;20225;-71
2023/07/17 05:33:43;;;;;;;9.07;5.22;;;24.90;99.90;;;;;;5014203;28;20217;-75
2023/07/17 05:36:31;;;;;;;12.77;5.32;;;24.80;99.90;;;;;;5027148;28;20808;-74
2023/07/17 05:39:22;;;;;;;8.40;4.82;;;24.80;99.90;;;;;;5017049;28;20249;-73
2023/07/17 05:42:11;;;;;;;8.05;5.53;;;24.90;99.90;;;;;;5001934;28;20248;-74
2023/07/17 05:45:00;;;;;;;11.88;5.30;;;24.80;99.90;;;;;;5007677;28;20248;-73
2023/07/17 05:47:49;;;;;;;6.55;4.93;;;24.80;99.90;;;;;;5017995;28;20233;-74
2023/07/17 05:50:39;;;;;;;10.65;4.82;;;25.10;99.90;;;;;;5011567;28;20225;-74
2023/07/17 05:53:28;;;;;;;7.53;5.32;;;25.20;99.90;;;;;;5004671;28;20229;-72
2023/07/17 05:56:18;;;;;;;10.43;5.38;;;25.40;99.90;;;;;;5029420;28;20227;-73
2023/07/17 05:59:09;;;;;;;6.18;4.75;;;25.80;99.90;;;;;;5017841;28;20234;-70
2023/07/17 06:01:58;;;;;;;8.82;5.00;;;26.20;99.90;;;;;;5017737;28;20411;-72
2023/07/17 06:04:47;;;;;;;6.45;4.80;;;26.10;99.90;;;;;;5021576;28;20731;-73
2023/07/17 06:07:37;;;;;;;8.13;5.03;;;26.00;99.90;;;;;;4992061;28;20229;-72
2023/07/17 06:10:26;;;;;;;13.25;4.93;;;26.00;99.90;;;;;;5014726;28;20229;-72
2023/07/17 06:13:19;;;;;;;7.43;4.60;;;26.00;99.90;;;;;;5019377;28;20233;-72
2023/07/17 06:16:08;;;;;;;11.40;4.80;;;26.30;99.90;;;;;;5009108;28;20221;-74
2023/07/17 06:18:57;;;;;;;10.73;4.55;;;26.20;99.90;;;;;;5021499;28;20225;-71
2023/07/17 06:21:45;;;;;;;8.25;4.78;;;26.40;99.90;;;;;;5023407;28;20236;-73
2023/07/17 06:24:34;;;;;;;7.38;4.50;;;26.60;99.90;;;;;;5014328;28;20701;-73
2023/07/17 06:27:23;;;;;;;5.05;3.88;;;27.00;99.90;;;;;;5034707;28;20221;-73
2023/07/17 06:30:14;;;;;;;7.85;4.70;;;27.00;99.90;;;;;;5000125;28;20247;-75
2023/07/17 06:33:04;;;;;;;7.03;4.30;;;26.90;99.90;;;;;;5020486;28;20233;-74
2023/07/17 06:35:53;;;;;;;5.85;4.40;;;26.80;99.90;;;;;;5024026;28;20640;-76
2023/07/17 06:38:41;;;;;;;9.45;4.60;;;26.40;99.90;;;;;;5021869;28;20324;-74
2023/07/17 06:41:30;;;;;;;7.22;3.90;;;26.40;99.90;;;;;;5025462;28;20225;-75
2023/07/17 06:44:20;;;;;;;8.20;4.50;;;26.30;99.90;;;;;;5021653;28;20248;-75
2023/07/17 06:47:10;;;;;;;9.30;4.50;;;26.20;99.90;;;;;;5013592;28;20222;-69
2023/07/17 06:50:19;;;;;;;11.88;4.25;;;26.20;99.90;;;;;;5010852;28;20220;-73
2023/07/17 06:53:08;;;;;;;11.65;4.78;;;26.20;99.90;;;;;;5017289;28;20230;-73
2023/07/17 06:55:57;;;;;;;11.63;5.10;;;26.10;99.90;;;;;;5017927;28;20756;-74
2023/07/17 06:58:46;;;;;;;10.32;4.28;;;26.10;99.90;;;;;;5020917;28;20549;-73
2023/07/17 07:01:35;;;;;;;4.97;4.22;;;26.20;99.90;;;;;;5020493;28;20972;-72
2023/07/17 07:04:25;;;;;;;13.40;4.90;;;26.30;99.90;;;;;;5008680;28;20225;-74
2023/07/17 07:07:14;;;;;;;9.52;4.80;;;26.40;99.90;;;;;;5005456;28;20251;-74
2023/07/17 07:10:08;;;;;;;7.68;4.80;;;26.50;99.90;;;;;;5022229;28;20703;-74
2023/07/17 07:12:57;;;;;;;8.02;4.90;;;26.70;99.90;;;;;;5011571;28;20881;-74
2023/07/17 07:15:46;;;;;;;9.40;5.05;;;26.70;99.90;;;;;;5021813;28;20605;-72
2023/07/17 07:18:35;;;;;;;9.50;5.18;;;26.70;99.90;;;;;;5020092;28;20287;-75
2023/07/17 07:21:25;;;;;;;6.70;4.38;;;26.70;99.90;;;;;;5017227;28;20666;-73
2023/07/17 07:24:14;;;;;;;9.07;4.80;;;26.70;99.90;;;;;;5016012;28;20697;-73
2023/07/17 07:27:03;;;;;;;9.15;4.50;;;26.70;99.90;;;;;;5020383;28;20217;-73
2023/07/17 07:29:52;;;;;;;8.85;4.22;;;26.70;99.90;;;;;;5007304;28;20656;-74
2023/07/17 07:32:41;;;;;;;6.20;4.18;;;26.70;99.90;;;;;;5016361;28;20226;-73
2023/07/17 07:35:33;;;;;;;8.02;4.13;;;26.60;99.90;;;;;;5025938;28;20270;-73
2023/07/17 07:38:23;;;;;;;8.75;4.07;;;26.60;99.90;;;;;;5016640;28;20238;-73
2023/07/17 07:41:12;;;;;;;6.25;4.47;;;26.60;99.90;;;;;;5027067;28;20359;-74
2023/07/17 07:44:01;;;;;;;10.40;4.20;;;26.60;99.90;;;;;;5020228;28;20222;-73
2023/07/17 07:46:51;;;;;;;7.18;3.97;;;26.60;99.90;;;;;;5026048;28;20265;-73
2023/07/17 07:49:40;;;;;;;9.18;4.03;;;26.50;99.90;;;;;;5021801;28;20303;-71
2023/07/17 07:52:28;;;;;;;7.10;4.13;;;26.40;99.90;;;;;;5027566;28;20281;-74
2023/07/17 07:55:19;;;;;;;12.65;4.15;;;26.40;99.90;;;;;;5023852;28;20222;-75
2023/07/17 07:58:10;;;;;;;9.40;4.70;;;26.30;99.90;;;;;;5012716;28;20725;-75
2023/07/17 08:00:59;;;;;;;7.85;4.80;;;26.40;99.90;;;;;;5009792;28;20284;-73
2023/07/17 08:03:48;;;;;;;11.05;4.80;;;26.50;99.90;;;;;;5018139;28;20244;-73
2023/07/17 08:06:37;;;;;;;10.07;4.45;;;26.70;99.90;;;;;;5023459;28;20982;-73
2023/07/17 08:09:27;;;;;;;6.90;4.20;;;26.80;99.90;;;;;;5018222;28;20309;-75
2023/07/17 08:12:17;;;;;;;6.95;4.30;;;26.80;99.90;;;;;;5007224;28;20562;-72
2023/07/17 08:15:08;;;;;;;5.82;4.03;;;26.80;99.70;;;;;;5023287;28;20225;-74
2023/07/17 08:17:56;;;;;;;5.63;3.90;;;26.70;99.30;;;;;;5001388;28;20252;-73
2023/07/17 08:20:46;;;;;;;7.20;4.28;;;26.60;99.60;;;;;;5004443;28;20222;-74
2023/07/17 08:23:36;;;;;;;9.20;3.80;;;26.60;99.70;;;;;;4997427;28;20233;-74
2023/07/17 08:26:25;;;;;;;6.00;3.60;;;26.70;99.60;;;;;;5002265;28;20225;-72
2023/07/17 08:29:16;;;;;;;5.63;4.30;;;26.80;99.30;;;;;;5022452;28;20716;-74
2023/07/17 08:32:06;;;;;;;6.90;4.10;;;26.90;99.40;;;;;;5022206;28;20279;-72
2023/07/17 08:34:55;;;;;;;7.63;4.40;;;27.10;99.50;;;;;;5014940;28;20237;-74
2023/07/17 08:37:44;;;;;;;5.43;4.15;;;27.10;99.60;;;;;;5023805;28;20716;-74
2023/07/17 08:40:34;;;;;;;8.65;4.15;;;27.10;99.70;;;;;;5023593;28;20743;-74
2023/07/17 08:43:25;;;;;;;6.60;4.22;;;27.40;99.90;;;;;;5018381;28;20221;-73
2023/07/17 08:46:15;;;;;;;8.52;4.30;;;28.10;99.40;;;;;;4994967;28;20267;-73
2023/07/17 08:49:07;;;;;;;10.45;4.40;;;28.70;99.90;;;;;;5024534;28;20238;-73
2023/07/17 08:51:57;;;;;;;8.45;4.32;;;28.60;98.60;;;;;;5020743;28;20237;-73
2023/07/17 08:54:46;;;;;;;6.43;3.80;;;28.50;98.30;;;;;;5016608;28;20323;-74
2023/07/17 08:57:36;;;;;;;5.35;4.45;;;28.70;98.10;;;;;;5016684;28;20230;-75
2023/07/17 09:00:25;;;;;;;8.93;4.43;;;29.50;97.60;;;;;;5020680;28;20221;-74
2023/07/17 09:03:16;;;;;;;7.38;4.13;;;30.50;95.50;;;;;;5018953;28;20332;-75
2023/07/17 09:06:13;;;;;;;11.32;3.92;;;31.30;96.50;;;;;;5019880;28;20588;-74
2023/07/17 09:09:02;;;;;;;12.23;4.43;;;32.10;95.00;;;;;;5013957;28;20602;-72
2023/07/17 09:12:07;;;;;;;7.38;4.22;;;31.70;93.20;;;;;;5016146;28;20421;-69
2023/07/17 09:14:57;;;;;;;9.45;3.92;;;32.10;92.50;;;;;;5020002;28;20231;-72
2023/07/17 09:17:45;;;;;;;8.05;4.57;;;32.60;92.60;;;;;;5020573;28;20600;-72
2023/07/17 09:20:36;;;;;;;6.28;3.80;;;32.80;90.80;;;;;;5015842;28;20232;-72
2023/07/17 09:23:25;;;;;;;6.65;4.32;;;33.00;90.90;;;;;;5022204;28;20835;-72
2023/07/17 09:26:15;;;;;;;5.63;3.85;;;33.20;90.20;;;;;;5016635;28;20217;-72
2023/07/17 09:29:05;;;;;;;4.70;3.60;;;33.10;86.80;;;;;;5014521;28;20228;-74
2023/07/17 09:31:54;;;;;;;6.38;3.92;;;33.50;85.90;;;;;;5010648;28;20221;-74
2023/07/17 09:34:43;;;;;;;5.38;3.85;;;33.70;86.30;;;;;;5016839;28;20221;-75
2023/07/17 09:37:37;;;;;;;5.47;3.33;;;34.10;83.10;;;;;;5022665;28;20228;-73
2023/07/17 09:40:28;;;;;;;4.28;3.45;;;34.50;85.10;;;;;;5018134;28;20227;-73
2023/07/17 09:43:30;;;;;;;6.47;3.85;;;34.90;81.70;;;;;;5015444;28;20220;-73
2023/07/17 09:46:19;;;;;;;6.50;3.22;;;35.30;81.30;;;;;;5009077;28;20221;-73
2023/07/17 09:49:09;;;;;;;4.55;3.13;;;35.20;81.20;;;;;;5014820;28;20903;-72
2023/07/17 09:51:59;;;;;;;7.40;3.30;;;35.50;80.00;;;;;;4998683;28;20961;-73
2023/07/17 09:54:50;;;;;;;4.28;3.50;;;36.40;84.60;;;;;;5011655;28;20309;-74
2023/07/17 09:57:40;;;;;;;5.75;3.80;;;37.60;82.60;;;;;;5017036;28;20306;-73
2023/07/17 10:00:31;;;;;;;7.10;3.10;;;38.00;79.80;;;;;;5020746;28;20752;-73
2023/07/17 10:03:24;;;;;;;4.85;2.83;;;39.00;77.40;;;;;;5010857;28;20217;-74
2023/07/17 10:06:15;;;;;;;5.43;3.30;;;39.70;75.50;;;;;;5017204;28;20232;-73
2023/07/17 10:09:06;;;;;;;3.72;3.30;;;40.50;74.90;;;;;;5018757;28;20307;-74
2023/07/17 10:11:57;;;;;;;8.05;3.40;;;40.60;67.90;;;;;;5016664;28;20249;-73
2023/07/17 10:14:47;;;;;;;7.68;2.92;;;40.00;65.80;;;;;;5014744;28;20222;-74
2023/07/17 10:17:37;;;;;;;3.55;2.92;;;39.90;67.40;;;;;;5021632;28;20213;-74
2023/07/17 10:20:26;;;;;;;7.40;3.00;;;40.40;67.30;;;;;;5017447;28;20249;-75
2023/07/17 10:23:24;;;;;;;6.03;2.78;;;40.00;64.50;;;;;;5023482;28;20905;-74
2023/07/17 10:26:16;;;;;;;3.95;3.03;;;41.00;64.70;;;;;;5017866;28;20224;-74
2023/07/17 10:29:07;;;;;;;2.70;2.50;;;41.80;62.90;;;;;;5019003;28;20228;-73
2023/07/17 10:31:57;;;;;;;7.13;3.00;;;41.00;64.40;;;;;;5007364;28;20268;-75
2023/07/17 10:34:51;;;;;;;4.07;2.90;;;41.80;64.70;;;;;;5006728;28;20228;-73
2023/07/17 10:37:41;;;;;;;3.50;2.90;;;41.80;62.80;;;;;;5022690;28;20225;-73
2023/07/17 10:40:30;;;;;;;4.28;3.22;;;40.80;61.30;;;;;;5007629;28;20370;-72
2023/07/17 10:43:20;;;;;;;4.32;2.88;;;38.60;65.30;;;;;;5018189;28;20256;-73
2023/07/17 10:46:12;;;;;;;5.20;3.33;;;37.70;72.40;;;;;;5010767;28;20220;-74
2023/07/17 10:49:08;;;;;;;3.60;3.30;;;36.70;68.60;;;;;;5007624;28;20229;-73
2023/07/17 10:51:57;;;;;;;4.20;3.30;;;37.30;70.90;;;;;;5017676;28;20236;-72
2023/07/17 10:54:45;;;;;;;3.00;2.80;;;38.90;68.70;;;;;;5019157;28;20330;-72
2023/07/17 10:57:37;;;;;;;4.97;3.30;;;38.90;66.50;;;;;;5021799;28;20604;-73
2023/07/17 11:00:26;;;;;;;3.85;2.67;;;39.40;67.80;;;;;;5017576;28;20297;-71
2023/07/17 11:03:17;;;;;;;3.92;3.35;;;39.20;65.60;;;;;;5014620;28;20693;-70
2023/07/17 11:06:08;;;;;;;5.35;2.97;;;37.40;71.30;;;;;;5008936;28;20772;-74
2023/07/17 11:08:58;;;;;;;5.40;3.30;;;36.10;72.40;;;;;;5009188;28;20341;-72
2023/07/17 11:11:47;;;;;;;3.92;3.30;;;35.20;74.70;;;;;;5018433;28;20232;-72
2023/07/17 11:14:36;;;;;;;4.32;3.17;;;34.70;78.60;;;;;;5021729;28;20264;-73
2023/07/17 11:17:25;;;;;;;3.58;3.13;;;35.50;76.00;;;;;;5020396;28;20231;-73
2023/07/17 11:20:16;;;;;;;3.85;3.17;;;39.40;68.90;;;;;;5020692;28;20247;-71
2023/07/17 11:23:10;;;;;;;3.50;3.20;;;38.30;70.80;;;;;;5023368;28;20221;-69
2023/07/17 11:25:59;;;;;;;3.28;2.97;;;36.40;70.10;;;;;;5024888;28;20232;-70
2023/07/17 11:28:50;;;;;;;5.15;3.20;;;35.30;71.80;;;;;;5018442;28;20229;-70
2023/07/17 11:31:39;;;;;;;3.67;3.22;;;34.70;75.10;;;;;;5027302;28;20220;-71
2023/07/17 11:34:28;;;;;;;7.57;3.50;;;34.50;74.40;;;;;;5019329;28;20275;-72
2023/07/17 11:37:34;;;;;;;8.45;3.53;;;37.80;72.80;;;;;;5008991;28;20605;-73
2023/07/17 11:40:50;;;;;;;8.02;2.88;;;41.70;69.40;;;;;;5018250;28;20245;-71
2023/07/17 11:43:39;;;;;;;3.58;3.05;;;44.50;58.70;;;;;;5015835;28;20225;-71
2023/07/17 11:46:28;;;;;;;6.18;3.22;;;45.90;57.40;;;;;;5009521;28;20428;-72
2023/07/17 11:49:18;;;;;;;11.38;3.45;;;47.20;54.00;;;;;;5018344;28;20278;-72
2023/07/17 11:52:18;;;;;;;3.25;2.75;;;48.80;54.80;;;;;;5015216;28;20310;-73
2023/07/17 11:55:13;;;;;;;11.88;3.30;;;49.50;51.40;;;;;;5018955;28;20221;-73
2023/07/17 11:58:02;;;;;;;9.77;3.60;;;50.50;53.10;;;;;;5018739;28;20308;-74
2023/07/17 12:00:56;;;;;;;5.40;2.92;;;50.40;50.90;;;;;;5014801;28;21111;-73
2023/07/17 12:03:45;;;;;;;3.88;3.10;;;45.70;52.10;;;;;;5015891;28;20236;-72
2023/07/17 12:06:34;;;;;;;4.90;3.22;;;42.20;56.90;;;;;;5014446;28;20249;-72
2023/07/17 12:09:23;;;;;;;8.57;3.33;;;39.70;59.10;;;;;;5016690;28;20253;-72
2023/07/17 12:12:14;;;;;;;5.18;3.00;;;38.20;63.90;;;;;;5011691;28;20229;-71
2023/07/17 12:15:03;;;;;;;8.48;3.42;;;37.00;65.40;;;;;;5020237;28;20229;-71
2023/07/17 12:17:54;;;;;;;5.22;3.10;;;36.70;69.80;;;;;;4998797;28;20234;-70
2023/07/17 12:20:44;;;;;;;6.03;3.28;;;35.70;65.60;;;;;;4994042;28;20308;-72
2023/07/17 12:23:34;;;;;;;3.97;3.30;;;34.50;68.30;;;;;;4990344;28;20234;-72
2023/07/17 12:26:23;;;;;;;4.28;3.28;;;34.20;74.30;;;;;;5000056;28;20897;-72
2023/07/17 12:29:13;;;;;;;6.47;3.40;;;34.00;75.60;;;;;;5015351;28;20248;-74
2023/07/17 12:32:02;;;;;;;5.55;3.60;;;33.60;75.90;;;;;;5016915;28;20232;-73
2023/07/17 12:34:52;;;;;;;3.80;2.92;;;33.20;75.40;;;;;;5018847;28;20305;-73
2023/07/17 12:37:41;;;;;;;3.55;3.25;;;32.80;73.10;;;;;;5020038;28;20237;-72
2023/07/17 12:40:30;;;;;;;5.97;3.40;;;32.80;77.00;;;;;;5022125;28;20259;-72
2023/07/17 12:43:19;;;;;;;3.47;3.17;;;32.60;74.20;;;;;;5022705;28;20358;-72
2023/07/17 12:46:09;;;;;;;4.80;3.30;;;32.40;75.20;;;;;;5015932;28;20220;-72
2023/07/17 12:48:59;;;;;;;4.95;3.42;;;32.20;78.60;;;;;;5015272;28;20221;-72
2023/07/17 12:51:48;;;;;;;7.95;3.20;;;31.90;75.90;;;;;;5016514;28;20308;-72
2023/07/17 12:54:37;;;;;;;3.28;2.97;;;31.90;76.10;;;;;;5014320;28;20499;-72
2023/07/17 12:57:26;;;;;;;5.28;3.55;;;31.70;76.30;;;;;;5020673;28;20250;-72
2023/07/17 13:00:17;;;;;;;4.82;3.17;;;31.60;77.40;;;;;;4996720;28;20303;-72
2023/07/17 13:03:07;;;;;;;5.18;3.22;;;31.60;77.40;;;;;;5029067;28;20366;-73
2023/07/17 13:05:57;;;;;;;3.53;3.08;;;31.50;79.20;;;;;;5016657;28;21571;-71
2023/07/17 13:08:47;;;;;;;8.00;3.58;;;31.40;78.80;;;;;;5002921;28;20604;-71
2023/07/17 13:11:36;;;;;;;3.67;3.38;;;31.30;78.50;;;;;;5018211;28;20229;-71
2023/07/17 13:14:25;;;;;;;4.30;3.30;;;31.30;78.10;;;;;;5019549;28;20713;-73
2023/07/17 13:17:14;;;;;;;4.57;3.50;;;31.20;78.90;;;;;;5019523;28;20232;-73
2023/07/17 13:20:06;;;;;;;5.25;3.88;;;31.20;80.00;;;;;;5017370;28;20224;-71
2023/07/17 13:22:55;;;;;;;5.65;3.50;;;31.10;81.40;;;;;;5016801;28;20914;-71
2023/07/17 13:25:44;;;;;;;10.07;8.40;;;31.20;83.10;;;;;;5015419;28;20239;-71
2023/07/17 13:28:34;;;;;;;5.43;4.25;;;31.30;82.40;;;;;;5018470;28;20308;-71
2023/07/17 13:31:23;;;;;;;8.35;3.40;;;31.50;82.50;;;;;;5025108;28;20716;-73
2023/07/17 13:34:13;;;;;;;9.30;4.00;;;31.50;81.40;;;;;;5016531;28;20371;-73
2023/07/17 13:37:03;;;;;;;4.72;3.50;;;31.30;83.20;;;;;;5018194;28;20640;-72
2023/07/17 13:39:52;;;;;;;4.43;4.03;;;31.20;83.00;;;;;;5007678;28;20229;-74
2023/07/17 13:42:41;;;;;;;5.03;3.67;;;31.00;82.60;;;;;;5020408;28;21033;-74
2023/07/17 13:45:30;;;;;;;5.75;3.63;;;31.10;83.00;;;;;;5011038;28;20237;-72
2023/07/17 13:48:20;;;;;;;8.30;3.70;;;31.10;83.00;;;;;;5022249;28;20221;-72
2023/07/17 13:51:09;;;;;;;4.95;3.67;;;31.20;84.40;;;;;;5013103;28;20214;-74
2023/07/17 13:53:59;;;;;;;4.90;3.55;;;31.20;83.70;;;;;;5018330;28;20807;-73
2023/07/17 13:56:48;;;;;;;5.20;3.85;;;31.00;84.50;;;;;;5014294;28;20232;-73
2023/07/17 13:59:42;;;;;;;4.57;3.70;;;31.10;84.60;;;;;;5007335;28;20225;-69
2023/07/17 14:02:30;;;;;;;3.97;3.58;;;31.00;84.60;;;;;;5015907;28;20979;-71
2023/07/17 14:05:20;;;;;;;5.45;4.03;;;30.90;87.10;;;;;;5015877;28;20217;-71
2023/07/17 14:08:09;;;;;;;5.22;3.85;;;30.90;90.20;;;;;;5016999;28;20232;-73
2023/07/17 14:10:59;;;;;;;5.88;4.13;;;30.90;90.80;;;;;;5024710;28;20235;-72
2023/07/17 14:13:48;;;;;;;7.25;3.95;;;30.80;91.60;;;;;;5015741;28;20283;-73
2023/07/17 14:16:40;;;;;;;7.70;4.10;;;30.70;92.10;;;;;;5011105;28;21025;-72
2023/07/17 14:19:29;;;;;;;5.93;4.20;;;30.70;92.40;;;;;;5020495;28;20244;-72
2023/07/17 14:22:18;;;;;;;5.93;4.22;;;30.50;92.70;;;;;;5017367;28;20696;-73
2023/07/17 14:25:07;;;;;;;6.20;4.00;;;30.50;92.60;;;;;;5007138;28;20308;-72
2023/07/17 14:27:58;;;;;;;4.63;3.60;;;30.60;92.60;;;;;;5016408;28;20719;-73
2023/07/17 14:30:47;;;;;;;4.25;3.80;;;30.70;92.90;;;;;;5019080;28;20224;-72
2023/07/17 14:33:36;;;;;;;4.57;3.88;;;30.60;93.40;;;;;;5019098;28;20629;-74
2023/07/17 14:36:25;;;;;;;6.63;4.00;;;30.60;93.20;;;;;;5020144;28;20320;-74
2023/07/17 14:39:14;;;;;;;5.35;3.67;;;30.70;93.40;;;;;;5001895;28;20244;-76
2023/07/17 14:42:04;;;;;;;5.90;4.10;;;30.70;93.20;;;;;;5007924;28;20244;-72
2023/07/17 14:44:54;;;;;;;7.30;3.80;;;30.60;93.40;;;;;;5011432;28;20229;-75